Details From HSSJ - Juba
To HUEN - Entebbe Intl
Flight Number -
Tags Generated
Created
Modified
Stats Distance 294 nm / 545 km
Max Altitude 0 ft / 0 m
Waypoints 3
Social Downloads 1
Likes 0
Share VATSIM

Download

Looking for another format? Having issues loading an existing format? Contact us
Advertisement - Login to hide

Notes

Generated

Route

HSSJ EL001 HUEN

ID Type Via Altitude Latitude Longitude Leg Dist Tot Dist Heading (true) Name
O HSSJ APT - 0 ft / 0 m 4.87902˚ 31.59285˚ - 0 nm - -
EL001 FIX - 0 ft / 0 m 0.06958˚ 32.43569˚ 293 nm 293 nm 170° / 170° -
O HUEN APT - 0 ft / 0 m 0.05123˚ 32.43912˚ 1 nm 294 nm 169° / 169° -

Altitude Profile

Advertisement - Login to hide

Weather


0- 5 10 15 20 25 30 35+ Temperature / ° C

Clouds and Precipitation
Forecast for 2017-12-16 12:00 UTC. Updated 8 minutes ago

Ground ~20,000 ft ~40,000 ft Winds

HSSJ

Details ICAO HSSJ (JUB)
Name JUBA
Region Sudan and South Sudan
Timezone Africa/Khartoum (UTC+3.0)
Stats Elevation 1,513 ft / 461 m (AMSL)
Location 4.872009° 31.601115°
Runways 1
Magnetic Variation 2.396° E

METAR

Not found

TAF

TAF TAF HSSJ 160500Z 1606/1712 15004KT 4000 HZ TEMPO 1608/1614 05006KT 5000 FU BECMG 1615/1617 18005KT CAVOK

Decode

Departure Runways

ID Width Length Bearing (true) Bearing (mag) Surface Threshold Offset Overrun Length
13 148 ft / 45 m 7,891 ft / 2,405 m 130.41° 128.01° Asphalt 0 ft / 0 m 200 ft / 61 m
31 148 ft / 45 m 7,891 ft / 2,405 m 310.41° 308.01° Asphalt 0 ft / 0 m 200 ft / 61 m

HUEN

Details ICAO HUEN (EBB)
Name ENTEBBE INTL
Region Uganda
Timezone Africa/Kampala (UTC+3.0)
Stats Elevation 3,782 ft / 1,153 m (AMSL)
Location 0.042386° 32.443504°
Runways 2
Magnetic Variation 1.527° E

METAR

HUEN 161100Z 21013KT 9000 FEW024 FEW026CB 26/20 Q1016.2 30.01 884.9 26.13 NOSIG

Decode

TAF

TAF TAF HUEN 152300Z 1600/1706 30006KT 9000 FEW020 FEW022CB SCT120 TEMPO 1602/1606 VRB12KT 8000 -TSRA SCT018 FEW020CB BKN100 BECMG 1607/1612 18010KT 9000 -TS FEW023 FEW025CB SCT150 FM161700 23009KT 9999 FEW020 FEW022CB SCT130 BECMG 1621/1624 32008KT 9000 FEW019 FEW021CB SCT110 TEMPO 1702/1706 VRB13KT 8000 -TSRA SCT018 FEW020CB BKN100

Decode

Destination Runways

ID Width Length Bearing (true) Bearing (mag) Surface Threshold Offset Overrun Length
12 150 ft / 46 m 8,014 ft / 2,443 m 121.34° 119.81° Asphalt 0 ft / 0 m 0 ft / 0 m
17 150 ft / 46 m 12,073 ft / 3,680 m 171.06° 169.53° Asphalt 0 ft / 0 m 0 ft / 0 m
30 150 ft / 46 m 8,014 ft / 2,443 m 301.34° 299.81° Asphalt 0 ft / 0 m 0 ft / 0 m
35 150 ft / 46 m 12,073 ft / 3,680 m 351.06° 349.53° Asphalt 0 ft / 0 m 0 ft / 0 m

Approach Navaids

Runway Type Ident Frequency Range Bearing (true) Bearing (mag) Slope Elevation
17 Localiser IEL 110.70 MHz 18 nm / 33 km 171.62° 170.10° - 3,754 ft / 1,144 m (AMSL)
17 Glidescope IEL 110.70 MHz 10 nm / 19 km 171.06° 169.53° 3.00° 3,780 ft / 1,152 m (AMSL)
17 DME IEL 110.70 MHz 18 nm / 33 km - - - 3,780 ft / 1,152 m (AMSL)

Popular Alternatives